createdAt,value
2023-01-10T00:01:44.383Z,30.40
2023-01-10T00:04:37.220Z,30.00
2023-01-10T00:07:15.067Z,27.60
2023-01-10T00:09:50.636Z,28.30
2023-01-10T00:12:40.055Z,27.90
2023-01-10T00:15:28.500Z,30.80
2023-01-10T00:18:00.257Z,29.40
2023-01-10T00:20:35.145Z,26.70
2023-01-10T00:23:12.219Z,26.90
2023-01-10T00:25:58.811Z,25.90
2023-01-10T00:28:42.920Z,26.20
2023-01-10T00:31:22.095Z,24.80
2023-01-10T00:34:03.136Z,30.80
2023-01-10T00:36:58.429Z,28.20
2023-01-10T00:42:38.593Z,25.90
2023-01-10T00:45:27.253Z,26.10
2023-01-10T00:47:58.877Z,24.30
2023-01-10T00:50:30.789Z,26.20
2023-01-10T00:53:08.703Z,24.20
2023-01-10T00:55:46.222Z,26.50
2023-01-10T00:59:07.321Z,23.60
2023-01-10T01:01:54.697Z,25.50
2023-01-10T01:04:47.571Z,26.70
2023-01-10T01:07:20.859Z,26.50
2023-01-10T01:10:15.176Z,31.20
2023-01-10T01:12:55.305Z,28.30
2023-01-10T01:18:44.275Z,30.30
2023-01-10T01:21:24.724Z,25.30
2023-01-10T01:23:58.026Z,23.90
2023-01-10T01:27:03.324Z,27.90
2023-01-10T01:29:52.128Z,25.00
2023-01-10T01:32:46.446Z,24.70
2023-01-10T01:35:21.431Z,25.50
2023-01-10T01:38:09.614Z,21.10
2023-01-10T01:40:46.868Z,24.30
2023-01-10T01:43:27.264Z,23.40
2023-01-10T01:46:03.393Z,22.30
2023-01-10T01:48:40.163Z,24.10
2023-01-10T01:51:17.735Z,24.20
2023-01-10T01:53:56.312Z,25.70
2023-01-10T01:56:32.227Z,25.80
2023-01-10T01:59:08.834Z,22.60
2023-01-10T02:01:43.920Z,23.10
2023-01-10T02:04:21.176Z,24.80
2023-01-10T02:06:57.404Z,22.40
2023-01-10T02:09:34.142Z,23.30
2023-01-10T02:12:06.181Z,25.00
2023-01-10T02:14:42.250Z,24.80
2023-01-10T02:17:14.650Z,26.30
2023-01-10T02:19:53.140Z,26.10
2023-01-10T02:22:52.230Z,23.70
2023-01-10T02:25:53.769Z,23.80
2023-01-10T02:28:49.493Z,25.00
2023-01-10T02:31:38.714Z,22.80
2023-01-10T02:34:18.500Z,27.00
2023-01-10T02:37:00.183Z,24.70
2023-01-10T02:39:42.033Z,26.40
2023-01-10T02:42:28.921Z,25.30
2023-01-10T02:45:11.219Z,22.40
2023-01-10T02:47:46.980Z,26.30
2023-01-10T02:50:53.841Z,26.00
2023-01-10T02:53:31.952Z,25.30
2023-01-10T02:56:39.395Z,28.20
2023-01-10T02:59:44.049Z,25.50
2023-01-10T03:02:25.233Z,28.80
2023-01-10T03:05:10.281Z,27.40
2023-01-10T03:07:51.253Z,24.40
2023-01-10T03:10:32.078Z,26.70
2023-01-10T03:13:11.595Z,25.50
2023-01-10T03:15:47.528Z,24.60
2023-01-10T03:18:27.069Z,28.40
2023-01-10T03:21:01.202Z,29.00
2023-01-10T03:23:36.871Z,29.80
2023-01-10T03:26:12.023Z,30.40
2023-01-10T03:28:51.554Z,28.50
2023-01-10T03:31:29.308Z,26.80
2023-01-10T03:34:04.572Z,30.10
2023-01-10T03:36:44.171Z,27.60
2023-01-10T03:39:22.846Z,29.20
2023-01-10T03:42:04.299Z,29.20
2023-01-10T03:44:47.838Z,26.90
2023-01-10T03:47:25.753Z,30.90
2023-01-10T03:50:08.737Z,27.00
2023-01-10T03:52:42.461Z,29.60
2023-01-10T03:55:22.898Z,25.20
2023-01-10T03:57:54.818Z,28.20
2023-01-10T04:00:46.871Z,29.50
2023-01-10T04:03:24.706Z,31.70
2023-01-10T04:05:56.428Z,33.00
2023-01-10T04:08:28.336Z,30.10
2023-01-10T04:10:59.786Z,30.60
2023-01-10T04:13:31.403Z,28.00
2023-01-10T04:16:04.278Z,28.70
2023-01-10T04:18:35.719Z,29.50
2023-01-10T04:21:08.877Z,29.80
2023-01-10T04:23:40.649Z,31.50
2023-01-10T04:26:12.282Z,31.70
2023-01-10T04:28:43.819Z,34.80
2023-01-10T04:31:35.677Z,30.60
2023-01-10T04:34:40.804Z,30.70
2023-01-10T04:37:12.356Z,37.80
2023-01-10T04:39:43.932Z,34.20
2023-01-10T04:42:15.444Z,36.70
2023-01-10T04:44:47.027Z,37.30
2023-01-10T04:47:18.572Z,39.60
2023-01-10T04:49:50.115Z,36.10
2023-01-10T04:52:21.661Z,38.00
2023-01-10T04:54:53.315Z,40.50
2023-01-10T04:57:24.791Z,39.20
2023-01-10T04:59:56.531Z,35.40
2023-01-10T05:02:28.613Z,37.80
2023-01-10T05:05:01.248Z,37.00
2023-01-10T05:07:32.909Z,39.20
2023-01-10T05:10:04.347Z,39.20
2023-01-10T05:12:36.152Z,40.20
2023-01-10T05:15:09.474Z,37.80
2023-01-10T05:17:41.284Z,43.60
2023-01-10T05:20:15.015Z,41.50
2023-01-10T05:22:46.644Z,38.80
2023-01-10T05:25:18.395Z,42.80
2023-01-10T05:27:50.104Z,43.40
2023-01-10T05:30:22.590Z,43.50
2023-01-10T05:32:54.436Z,44.80
2023-01-10T05:35:26.070Z,43.90
2023-01-10T05:38:00.268Z,50.00
2023-01-10T05:40:32.153Z,42.40
2023-01-10T05:43:03.853Z,46.30
2023-01-10T05:45:35.392Z,46.60
2023-01-10T05:48:07.497Z,44.00
2023-01-10T05:50:38.970Z,43.90
2023-01-10T05:53:10.785Z,47.50
2023-01-10T05:55:42.445Z,46.30
2023-01-10T05:58:16.414Z,47.20
2023-01-10T06:00:48.049Z,50.90
2023-01-10T06:03:19.806Z,47.40
2023-01-10T06:05:53.115Z,47.90
2023-01-10T06:08:25.497Z,51.60
2023-01-10T06:10:57.249Z,49.10
2023-01-10T06:13:28.794Z,52.10
2023-01-10T06:16:00.331Z,48.50
2023-01-10T06:18:31.995Z,47.10
2023-01-10T06:21:03.538Z,48.80
2023-01-10T06:23:34.897Z,52.80
2023-01-10T06:26:06.604Z,47.50
2023-01-10T06:28:38.073Z,49.80
2023-01-10T06:31:09.691Z,53.10
2023-01-10T06:33:41.819Z,47.80
2023-01-10T06:36:14.097Z,49.90
2023-01-10T06:38:46.012Z,47.50
2023-01-10T06:41:17.505Z,52.60
2023-01-10T06:43:51.408Z,51.20
2023-01-10T06:46:24.265Z,50.20
2023-01-10T06:48:55.898Z,54.40
2023-01-10T06:51:27.413Z,54.60
2023-01-10T06:53:58.967Z,55.40
2023-01-10T06:56:31.020Z,54.90
2023-01-10T06:59:02.541Z,57.60
2023-01-10T07:01:34.192Z,52.50
2023-01-10T07:04:06.320Z,56.50
2023-01-10T07:06:43.339Z,54.30
2023-01-10T07:09:15.177Z,58.00
2023-01-10T07:11:46.745Z,56.00
2023-01-10T07:14:18.306Z,57.00
2023-01-10T07:16:49.845Z,52.80
2023-01-10T07:19:21.531Z,55.50
2023-01-10T07:21:53.144Z,56.60
2023-01-10T07:24:27.523Z,56.30
2023-01-10T07:26:59.962Z,54.60
2023-01-10T07:29:34.074Z,53.30
2023-01-10T07:32:05.640Z,53.90
2023-01-10T07:34:37.536Z,55.70
2023-01-10T07:37:09.051Z,53.60
2023-01-10T07:39:42.491Z,55.00
2023-01-10T07:42:14.049Z,54.00
2023-01-10T07:44:45.479Z,52.80
2023-01-10T07:47:17.066Z,55.30
2023-01-10T07:49:53.000Z,51.10
2023-01-10T07:52:24.798Z,58.30
2023-01-10T07:54:56.363Z,55.70
2023-01-10T07:57:28.664Z,49.20
2023-01-10T08:00:00.294Z,57.00
2023-01-10T08:02:32.156Z,56.20
2023-01-10T08:05:06.128Z,55.30
2023-01-10T08:07:37.799Z,55.00
2023-01-10T08:10:11.123Z,52.20
2023-01-10T08:12:42.701Z,58.90
2023-01-10T08:15:15.196Z,54.80
2023-01-10T08:17:49.217Z,53.60
2023-01-10T08:20:21.401Z,53.00
2023-01-10T08:22:53.266Z,51.00
2023-01-10T08:25:25.370Z,49.80
2023-01-10T08:27:56.854Z,48.20
2023-01-10T08:30:29.693Z,50.60
2023-01-10T08:33:07.734Z,49.40
2023-01-10T08:35:42.956Z,52.00
2023-01-10T08:38:14.857Z,53.60
2023-01-10T08:40:49.398Z,55.90
2023-01-10T08:43:25.573Z,51.20
2023-01-10T08:45:59.852Z,61.00
2023-01-10T08:48:33.716Z,59.20
2023-01-10T08:51:11.497Z,62.40
2023-01-10T08:53:46.891Z,54.00
2023-01-10T08:56:19.888Z,53.00
2023-01-10T08:58:52.858Z,54.00
2023-01-10T09:01:26.179Z,54.90
2023-01-10T09:03:58.075Z,57.60
2023-01-10T09:06:31.976Z,50.90
2023-01-10T09:09:07.057Z,61.90
2023-01-10T09:11:40.569Z,59.20
2023-01-10T09:14:13.328Z,56.70
2023-01-10T09:16:45.181Z,63.30
2023-01-10T09:19:17.147Z,62.40
2023-01-10T09:21:49.548Z,61.70
2023-01-10T09:24:21.578Z,65.20
2023-01-10T09:26:53.041Z,58.10
2023-01-10T09:29:24.541Z,54.90
2023-01-10T09:31:56.420Z,56.60
2023-01-10T09:34:29.674Z,53.90
2023-01-10T09:37:01.054Z,51.30
2023-01-10T09:39:32.739Z,51.10
2023-01-10T09:42:21.804Z,48.40
2023-01-10T09:45:06.760Z,44.20
2023-01-10T09:47:45.505Z,45.30
2023-01-10T09:50:25.223Z,43.60
2023-01-10T09:53:00.658Z,43.20
2023-01-10T09:55:35.477Z,38.70
2023-01-10T10:00:45.661Z,47.60
2023-01-10T10:03:29.438Z,38.80
2023-01-10T10:06:11.735Z,42.00
2023-01-10T10:08:45.208Z,42.40
2023-01-10T10:11:43.493Z,49.90
2023-01-10T10:14:27.247Z,49.30
2023-01-10T10:17:13.459Z,47.00
2023-01-10T10:20:03.468Z,42.90
2023-01-10T10:22:48.133Z,44.00
2023-01-10T10:25:38.085Z,44.30
2023-01-10T10:28:31.842Z,41.10
2023-01-10T10:31:14.094Z,41.00
2023-01-10T10:34:03.008Z,44.60
2023-01-10T10:36:45.057Z,47.70
2023-01-10T10:39:21.133Z,49.50
2023-01-10T10:41:56.987Z,51.90
2023-01-10T10:44:42.429Z,43.90
2023-01-10T10:47:18.617Z,46.50
2023-01-10T10:49:56.452Z,46.90
2023-01-10T10:52:32.645Z,43.00
2023-01-10T10:55:05.850Z,49.70
2023-01-10T10:57:51.618Z,43.00
2023-01-10T11:00:28.411Z,43.40
2023-01-10T11:03:05.435Z,46.60
2023-01-10T11:05:42.551Z,43.00
2023-01-10T11:08:17.370Z,42.60
2023-01-10T11:10:53.857Z,46.90
2023-01-10T11:13:42.141Z,46.80
2023-01-10T11:16:27.950Z,43.30
2023-01-10T11:19:21.244Z,44.50
2023-01-10T11:21:57.668Z,47.60
2023-01-10T11:24:34.276Z,46.70
2023-01-10T11:27:22.388Z,45.20
2023-01-10T11:29:57.816Z,41.80
2023-01-10T11:32:36.447Z,49.70
2023-01-10T11:35:19.171Z,44.60
2023-01-10T11:38:02.426Z,41.50
2023-01-10T11:40:35.597Z,44.70
2023-01-10T11:43:30.436Z,43.80
2023-01-10T11:46:04.844Z,40.30
2023-01-10T11:51:47.212Z,42.10
2023-01-10T11:54:22.747Z,37.40
2023-01-10T11:57:00.467Z,40.00
2023-01-10T11:59:33.181Z,39.80
2023-01-10T12:02:13.485Z,38.20
2023-01-10T12:04:47.842Z,44.20
2023-01-10T12:07:19.499Z,40.10
2023-01-10T12:09:58.521Z,40.30
2023-01-10T12:12:32.730Z,38.50
2023-01-10T12:15:25.468Z,41.60
2023-01-10T12:17:59.551Z,47.10
2023-01-10T12:20:33.347Z,40.90
2023-01-10T12:23:08.449Z,40.80
2023-01-10T12:25:42.681Z,39.20
2023-01-10T12:28:19.460Z,43.00
2023-01-10T12:30:53.248Z,42.90
2023-01-10T12:33:27.774Z,44.10
2023-01-10T12:36:07.995Z,39.20
2023-01-10T12:38:59.273Z,48.60
2023-01-10T12:41:53.373Z,42.30
2023-01-10T12:44:30.244Z,43.60
2023-01-10T12:47:09.155Z,42.90
2023-01-10T12:49:50.708Z,39.10
2023-01-10T12:52:31.420Z,39.50
2023-01-10T12:55:04.716Z,43.00
2023-01-10T12:57:40.739Z,43.30
2023-01-10T13:00:22.319Z,39.50
2023-01-10T13:02:57.686Z,38.90
2023-01-10T13:05:32.488Z,37.40
2023-01-10T13:10:40.099Z,41.70
2023-01-10T13:13:22.143Z,35.80
2023-01-10T13:15:59.026Z,37.70
2023-01-10T13:18:32.702Z,42.60
2023-01-10T13:21:13.609Z,38.80
2023-01-10T13:23:51.639Z,44.30
2023-01-10T13:26:23.104Z,45.80
2023-01-10T13:29:00.699Z,42.70
2023-01-10T13:31:35.249Z,45.00
2023-01-10T13:34:11.581Z,43.30
2023-01-10T13:36:47.403Z,38.90
2023-01-10T13:39:29.607Z,41.70
2023-01-10T13:42:50.545Z,39.70
2023-01-10T13:45:27.238Z,42.90
2023-01-10T13:48:04.669Z,41.80
2023-01-10T13:51:18.157Z,42.30
2023-01-10T13:53:59.951Z,40.00
2023-01-10T13:56:47.967Z,45.00
2023-01-10T14:00:18.343Z,55.10
2023-01-10T14:02:50.709Z,42.40
2023-01-10T14:05:22.804Z,42.60
2023-01-10T14:07:56.013Z,42.50
2023-01-10T14:10:29.508Z,45.10
2023-01-10T14:13:09.983Z,41.90
2023-01-10T14:15:44.679Z,41.90
2023-01-10T14:21:02.977Z,42.80
2023-01-10T14:23:39.347Z,42.90
2023-01-10T14:26:18.763Z,50.10
2023-01-10T14:28:51.722Z,47.80
2023-01-10T14:31:25.607Z,44.70
2023-01-10T14:34:00.203Z,44.80
2023-01-10T14:36:34.855Z,48.30
2023-01-10T14:39:09.218Z,43.10
2023-01-10T14:41:44.877Z,45.30
2023-01-10T14:44:22.813Z,46.30
2023-01-10T14:46:55.945Z,44.00
2023-01-10T14:49:30.397Z,43.80
2023-01-10T14:52:15.764Z,43.30
2023-01-10T14:54:48.209Z,53.50
2023-01-10T14:57:24.654Z,44.90
2023-01-10T15:00:06.618Z,41.40
2023-01-10T15:02:39.582Z,42.80
2023-01-10T15:05:19.020Z,45.50
2023-01-10T15:07:50.695Z,44.00
2023-01-10T15:10:29.096Z,42.90
2023-01-10T15:13:07.072Z,43.30
2023-01-10T15:15:41.264Z,44.20
2023-01-10T15:18:28.834Z,50.70
2023-01-10T15:21:01.879Z,51.30
2023-01-10T15:23:39.290Z,54.60
2023-01-10T15:26:15.300Z,56.30
2023-01-10T15:28:49.627Z,56.80
2023-01-10T15:31:21.409Z,57.70
2023-01-10T15:33:56.958Z,61.20
2023-01-10T15:36:30.916Z,69.20
2023-01-10T15:39:02.828Z,71.60
2023-01-10T15:41:38.786Z,65.10
2023-01-10T15:44:38.174Z,65.90
2023-01-10T15:47:23.836Z,60.90
2023-01-10T15:49:59.215Z,63.50
2023-01-10T15:52:31.015Z,62.50
2023-01-10T15:55:02.856Z,61.40
2023-01-10T15:57:36.408Z,64.50
2023-01-10T16:00:15.443Z,63.00
2023-01-10T16:02:47.635Z,63.20
2023-01-10T16:05:22.253Z,81.40
2023-01-10T16:07:54.076Z,76.90
2023-01-10T16:10:28.514Z,82.50
2023-01-10T16:13:31.857Z,83.10
2023-01-10T16:16:12.261Z,86.40
2023-01-10T16:18:44.211Z,85.90
2023-01-10T16:21:16.520Z,91.90
2023-01-10T16:23:48.113Z,91.60
2023-01-10T16:26:19.649Z,89.80
2023-01-10T16:28:51.491Z,77.00
2023-01-10T16:31:23.030Z,71.00
2023-01-10T16:33:54.986Z,75.60
2023-01-10T16:36:26.747Z,82.30
2023-01-10T16:38:58.650Z,77.10
2023-01-10T16:41:48.347Z,81.30
2023-01-10T16:44:20.670Z,84.00
2023-01-10T16:46:53.279Z,78.80
2023-01-10T16:49:26.469Z,83.40
2023-01-10T16:51:58.250Z,81.60
2023-01-10T16:54:29.938Z,100.60
2023-01-10T16:57:01.363Z,85.50
2023-01-10T16:59:32.847Z,77.70
2023-01-10T17:02:04.919Z,90.40
2023-01-10T17:04:37.695Z,74.60
2023-01-10T17:07:09.593Z,76.80
2023-01-10T17:09:41.465Z,79.30
2023-01-10T17:12:20.148Z,77.30
2023-01-10T17:14:51.742Z,73.70
2023-01-10T17:17:23.428Z,75.20
2023-01-10T17:19:54.945Z,68.50
2023-01-10T17:22:26.445Z,67.50
2023-01-10T17:24:57.901Z,67.00
2023-01-10T17:27:29.561Z,69.70
2023-01-10T17:30:02.608Z,74.50
2023-01-10T17:32:35.009Z,68.70
2023-01-10T17:35:07.225Z,69.20
2023-01-10T17:37:38.744Z,70.70
2023-01-10T17:40:13.036Z,65.90
2023-01-10T17:42:45.437Z,75.60
2023-01-10T17:45:16.985Z,69.60
2023-01-10T17:47:48.956Z,70.60
2023-01-10T17:50:21.042Z,63.70
2023-01-10T17:52:53.176Z,70.10
2023-01-10T17:55:26.780Z,68.60
2023-01-10T17:58:00.621Z,70.00
2023-01-10T18:00:32.975Z,67.60
2023-01-10T18:03:04.426Z,72.00
2023-01-10T18:05:36.729Z,65.80
2023-01-10T18:08:10.271Z,73.00
2023-01-10T18:10:41.929Z,72.50
2023-01-10T18:13:15.907Z,67.50
2023-01-10T18:16:05.551Z,75.20
2023-01-10T18:18:37.092Z,70.80
2023-01-10T18:21:16.806Z,67.90
2023-01-10T18:23:50.473Z,72.50
2023-01-10T18:26:22.948Z,73.30
2023-01-10T18:28:54.744Z,70.60
2023-01-10T18:31:26.651Z,70.50
2023-01-10T18:33:59.125Z,65.50
2023-01-10T18:36:30.601Z,69.10
2023-01-10T18:39:04.034Z,60.20
2023-01-10T18:41:35.727Z,57.80
2023-01-10T18:44:08.225Z,60.00
2023-01-10T18:46:41.145Z,57.70
2023-01-10T18:49:13.607Z,55.70
2023-01-10T18:51:45.212Z,55.50
2023-01-10T18:54:18.951Z,54.20
2023-01-10T18:56:53.274Z,57.50
2023-01-10T18:59:25.010Z,52.80
2023-01-10T19:01:57.022Z,61.80
2023-01-10T19:04:29.903Z,60.90
2023-01-10T19:07:07.996Z,58.40
2023-01-10T19:09:45.264Z,71.30
2023-01-10T19:12:19.075Z,59.10
2023-01-10T19:15:03.590Z,55.70
2023-01-10T19:17:36.987Z,55.90
2023-01-10T19:20:11.560Z,66.50
2023-01-10T19:22:47.477Z,71.70
2023-01-10T19:25:21.376Z,62.30
2023-01-10T19:27:53.211Z,65.80
2023-01-10T19:30:31.556Z,68.10
2023-01-10T19:33:06.716Z,88.00
2023-01-10T19:35:42.038Z,69.50
2023-01-10T19:38:35.843Z,70.40
2023-01-10T19:41:23.221Z,68.70
2023-01-10T19:44:17.055Z,67.80
2023-01-10T19:47:05.606Z,67.40
2023-01-10T19:50:00.457Z,55.40
2023-01-10T19:52:39.479Z,54.70
2023-01-10T19:55:12.572Z,62.70
2023-01-10T19:57:44.720Z,54.50
2023-01-10T20:00:18.024Z,59.20
2023-01-10T20:02:50.099Z,56.20
2023-01-10T20:05:22.933Z,57.70
2023-01-10T20:07:57.460Z,64.50
2023-01-10T20:10:30.372Z,61.60
2023-01-10T20:13:02.553Z,50.80
2023-01-10T20:15:35.450Z,61.10
2023-01-10T20:18:10.030Z,58.40
2023-01-10T20:20:44.748Z,55.90
2023-01-10T20:23:22.034Z,55.20
2023-01-10T20:26:13.586Z,57.60
2023-01-10T20:28:48.250Z,55.20
2023-01-10T20:31:25.230Z,53.20
2023-01-10T20:33:57.802Z,51.40
2023-01-10T20:36:30.906Z,52.80
2023-01-10T20:39:06.620Z,55.60
2023-01-10T20:41:38.794Z,58.00
2023-01-10T20:44:10.687Z,56.20
2023-01-10T20:46:42.295Z,60.60
2023-01-10T20:49:16.040Z,57.40
2023-01-10T20:51:49.367Z,55.60
2023-01-10T20:54:22.343Z,58.60
2023-01-10T20:56:54.923Z,53.70
2023-01-10T20:59:29.719Z,55.80
2023-01-10T21:04:33.286Z,60.70
2023-01-10T21:07:07.874Z,62.20
2023-01-10T21:09:41.572Z,61.00
2023-01-10T21:12:27.701Z,63.00
2023-01-10T21:15:02.898Z,61.40
2023-01-10T21:17:34.665Z,59.00
2023-01-10T21:20:14.706Z,58.70
2023-01-10T21:22:47.086Z,63.70
2023-01-10T21:25:18.926Z,67.00
2023-01-10T21:27:50.731Z,59.00
2023-01-10T21:30:23.223Z,62.30
2023-01-10T21:32:56.461Z,62.90
2023-01-10T21:35:28.051Z,62.00
2023-01-10T21:38:02.561Z,62.00
2023-01-10T21:40:35.651Z,61.50
2023-01-10T21:43:07.799Z,54.30
2023-01-10T21:45:39.794Z,56.70
2023-01-10T21:48:11.299Z,57.00
2023-01-10T21:50:45.043Z,60.60
2023-01-10T21:53:16.975Z,51.50
2023-01-10T21:55:58.563Z,63.70
2023-01-10T21:58:30.474Z,59.60
2023-01-10T22:01:03.553Z,54.90
2023-01-10T22:03:36.546Z,64.00
2023-01-10T22:06:11.209Z,62.00
2023-01-10T22:09:05.907Z,60.00
2023-01-10T22:12:13.213Z,56.80
2023-01-10T22:14:56.747Z,58.90
2023-01-10T22:17:51.314Z,49.30
2023-01-10T22:20:46.662Z,54.30
2023-01-10T22:23:32.122Z,49.20
2023-01-10T22:26:16.289Z,54.60
2023-01-10T22:28:47.825Z,51.90
2023-01-10T22:31:19.397Z,52.80
2023-01-10T22:33:51.468Z,52.60
2023-01-10T22:36:24.634Z,54.90
2023-01-10T22:38:56.020Z,48.60
2023-01-10T22:41:29.248Z,55.80
2023-01-10T22:44:00.958Z,55.20
2023-01-10T22:46:36.115Z,47.80
2023-01-10T22:49:07.793Z,48.60
2023-01-10T22:51:39.327Z,48.90
2023-01-10T22:54:13.518Z,49.20
2023-01-10T22:56:45.386Z,46.50
2023-01-10T23:04:56.579Z,49.30
2023-01-10T23:07:28.367Z,46.30
2023-01-10T23:09:59.909Z,55.90
2023-01-10T23:12:31.544Z,50.60
2023-01-10T23:15:04.671Z,52.40
2023-01-10T23:17:37.649Z,52.60
2023-01-10T23:20:11.575Z,49.70
2023-01-10T23:22:51.955Z,51.40
2023-01-10T23:25:29.858Z,45.80
2023-01-10T23:28:08.392Z,53.50
2023-01-10T23:30:44.264Z,56.90
2023-01-10T23:33:17.877Z,49.70
2023-01-10T23:35:49.724Z,53.00
2023-01-10T23:38:21.401Z,57.20
2023-01-10T23:40:53.037Z,57.80
2023-01-10T23:43:25.404Z,52.50
2023-01-10T23:45:57.027Z,57.20
2023-01-10T23:48:29.996Z,62.50
2023-01-10T23:51:02.035Z,64.30
2023-01-10T23:53:34.560Z,59.80
2023-01-10T23:56:11.166Z,57.10
2023-01-10T23:58:42.817Z,66.60
